Time;durP1;ratioP1;P1;durP2;ratioP2;P2;SDS_P1;SDS_P2;PMS_P1;PMS_P2;Temp;Humidity;BMP_temperature;BMP_pressure;BME280_temperature;BME280_humidity;BME280_pressure;Samples;Min_cycle;Max_cycle;Signal;HPM_P1;HPM_P2
2024/03/05 00:00:10;;;;;;;62.78;27.73;;;8.00;99.90;;;;;;5025129;28;20555;-88
2024/03/05 00:02:42;;;;;;;55.80;24.45;;;8.00;99.90;;;;;;5060296;28;20025;-89
2024/03/05 00:05:09;;;;;;;64.43;22.67;;;8.00;99.90;;;;;;5057411;28;20522;-90
2024/03/05 00:07:38;;;;;;;63.47;22.85;;;8.00;99.90;;;;;;5039994;28;20079;-90
2024/03/05 00:10:04;;;;;;;63.70;25.40;;;8.00;99.90;;;;;;5050215;28;20036;-89
2024/03/05 00:12:33;;;;;;;56.60;23.63;;;7.90;99.90;;;;;;5066113;28;20471;-91
2024/03/05 00:14:59;;;;;;;61.42;22.45;;;8.00;99.90;;;;;;5058604;28;20021;-90
2024/03/05 00:17:25;;;;;;;62.95;23.55;;;8.00;99.90;;;;;;5051146;28;20029;-90
2024/03/05 00:19:51;;;;;;;53.65;21.60;;;8.00;99.90;;;;;;5058811;28;20051;-89
2024/03/05 00:22:17;;;;;;;64.05;26.80;;;8.00;99.90;;;;;;5066804;28;20088;-90
2024/03/05 00:24:43;;;;;;;59.20;27.48;;;7.90;99.90;;;;;;5064931;28;20243;-90
2024/03/05 00:27:09;;;;;;;65.13;23.65;;;7.90;99.90;;;;;;5069052;28;20382;-90
2024/03/05 00:29:35;;;;;;;61.65;22.17;;;7.90;99.90;;;;;;5047973;28;20018;-91
2024/03/05 00:32:00;;;;;;;67.07;26.00;;;7.90;99.90;;;;;;5046711;28;20025;-90
2024/03/05 00:34:26;;;;;;;64.10;22.90;;;7.90;99.90;;;;;;5057415;28;20503;-90
2024/03/05 00:36:52;;;;;;;58.20;24.20;;;7.90;99.90;;;;;;5041498;28;20047;-88
2024/03/05 00:39:19;;;;;;;63.05;23.55;;;7.90;99.90;;;;;;5056292;28;20017;-90
2024/03/05 00:41:45;;;;;;;68.97;26.23;;;7.90;99.90;;;;;;5066773;28;20050;-90
2024/03/05 00:44:11;;;;;;;63.03;24.38;;;7.80;99.90;;;;;;5048064;28;20029;-91
2024/03/05 00:46:37;;;;;;;60.95;23.77;;;7.80;99.90;;;;;;5073656;28;20372;-90
2024/03/05 00:49:03;;;;;;;57.33;22.63;;;7.80;99.90;;;;;;5041623;28;20028;-90
2024/03/05 00:51:29;;;;;;;62.92;23.58;;;7.80;99.90;;;;;;5027706;28;20025;-90
2024/03/05 00:53:55;;;;;;;56.13;22.30;;;7.80;99.90;;;;;;5054919;28;20020;-91
2024/03/05 00:56:20;;;;;;;58.97;23.60;;;7.80;99.90;;;;;;5062948;28;20033;-90
2024/03/05 00:58:46;;;;;;;55.20;21.73;;;7.80;99.90;;;;;;5044948;28;20536;-90
2024/03/05 01:01:12;;;;;;;57.17;24.67;;;7.80;99.90;;;;;;5058224;28;20040;-90
2024/03/05 01:03:38;;;;;;;65.75;22.45;;;7.80;99.90;;;;;;5067446;28;20029;-91
2024/03/05 01:06:05;;;;;;;61.15;23.92;;;7.80;99.90;;;;;;5057376;28;20060;-90
2024/03/05 01:08:32;;;;;;;58.25;23.63;;;7.80;99.90;;;;;;5049079;28;20024;-90
2024/03/05 01:10:59;;;;;;;62.20;23.08;;;7.80;99.90;;;;;;5063163;28;20035;-89
2024/03/05 01:13:25;;;;;;;55.22;21.52;;;7.80;99.90;;;;;;5074281;28;20021;-90
2024/03/05 01:15:50;;;;;;;56.60;21.30;;;7.80;99.90;;;;;;5065098;28;20016;-91
2024/03/05 01:18:16;;;;;;;58.03;20.80;;;7.80;99.90;;;;;;5058619;28;20053;-91
2024/03/05 01:20:44;;;;;;;56.78;22.13;;;7.80;99.90;;;;;;5052167;28;20122;-92
2024/03/05 01:23:13;;;;;;;;;;;7.80;99.90;;;;;;5048184;28;20067;-90
2024/03/05 01:25:39;;;;;;;56.50;21.00;;;7.70;99.90;;;;;;5071194;28;19904;-90
2024/03/05 01:28:07;;;;;;;62.25;21.88;;;7.70;99.90;;;;;;5047776;28;20368;-89
2024/03/05 01:30:33;;;;;;;54.20;23.33;;;7.70;99.90;;;;;;5038958;28;20060;-89
2024/03/05 01:33:03;;;;;;;57.03;21.58;;;7.60;99.90;;;;;;5050743;28;20109;-88
2024/03/05 01:35:30;;;;;;;58.95;22.42;;;7.60;99.90;;;;;;5024618;28;20025;-91
2024/03/05 01:37:56;;;;;;;55.13;22.17;;;7.60;99.90;;;;;;5066574;28;20074;-90
2024/03/05 01:40:22;;;;;;;60.28;22.98;;;7.70;99.90;;;;;;5074394;28;20029;-91
2024/03/05 01:42:48;;;;;;;55.67;22.20;;;7.70;99.90;;;;;;5060588;28;20021;-90
2024/03/05 01:45:15;;;;;;;60.17;22.98;;;7.60;99.90;;;;;;5047911;28;20110;-91
2024/03/05 01:47:41;;;;;;;55.50;23.48;;;7.60;99.90;;;;;;5065069;28;20025;-92
2024/03/05 01:50:10;;;;;;;61.97;22.98;;;7.60;99.90;;;;;;5040880;28;20112;-90
2024/03/05 01:52:37;;;;;;;63.20;23.55;;;7.60;99.90;;;;;;5051392;28;20017;-91
2024/03/05 01:55:09;;;;;;;59.85;22.63;;;7.60;99.90;;;;;;5040711;28;20021;-90
2024/03/05 01:57:37;;;;;;;54.70;21.67;;;7.60;99.90;;;;;;5069246;28;20063;-90
2024/03/05 02:00:03;;;;;;;60.42;21.85;;;7.50;99.90;;;;;;5052017;28;20032;-91
2024/03/05 02:02:30;;;;;;;58.10;24.15;;;7.50;99.90;;;;;;5065466;28;20021;-91
2024/03/05 02:04:57;;;;;;;57.95;21.30;;;7.50;99.90;;;;;;5074166;28;20029;-91
2024/03/05 02:07:24;;;;;;;50.35;18.38;;;7.40;99.90;;;;;;5043507;28;20496;-90
2024/03/05 02:09:51;;;;;;;58.47;22.77;;;7.40;99.90;;;;;;5055145;28;20018;-90
2024/03/05 02:12:18;;;;;;;53.15;20.15;;;7.40;99.90;;;;;;5049698;28;20025;-91
2024/03/05 02:14:43;;;;;;;58.30;22.80;;;7.40;99.90;;;;;;5052816;28;20043;-91
2024/03/05 02:17:12;;;;;;;54.92;22.95;;;7.50;99.90;;;;;;5074113;28;20028;-90
2024/03/05 02:19:49;;;;;;;51.75;22.67;;;7.50;99.90;;;;;;5052901;28;20025;-90
2024/03/05 02:22:15;;;;;;;54.85;22.65;;;7.40;99.90;;;;;;5051883;28;20092;-90
2024/03/05 02:24:43;;;;;;;61.95;22.50;;;7.50;99.90;;;;;;5066341;28;20060;-90
2024/03/05 02:27:10;;;;;;;49.75;22.50;;;7.50;99.90;;;;;;5064419;28;20040;-90
2024/03/05 02:29:38;;;;;;;55.67;24.92;;;7.60;99.90;;;;;;5043310;28;20049;-90
2024/03/05 02:32:06;;;;;;;56.38;24.38;;;7.50;99.90;;;;;;5046616;28;20044;-90
2024/03/05 02:34:34;;;;;;;58.35;22.27;;;7.60;99.90;;;;;;5057421;28;20017;-92
2024/03/05 02:37:00;;;;;;;63.05;23.20;;;7.50;99.90;;;;;;5031738;28;20030;-89
2024/03/05 02:39:30;;;;;;;54.58;22.02;;;7.50;99.90;;;;;;5071472;28;20029;-90
2024/03/05 02:41:56;;;;;;;58.55;21.38;;;7.50;99.90;;;;;;5072238;28;20031;-90
2024/03/05 02:44:22;;;;;;;57.85;22.15;;;7.50;99.90;;;;;;5059810;28;20108;-89
2024/03/05 02:46:50;;;;;;;61.35;24.65;;;7.60;99.90;;;;;;5036957;28;20096;-90
2024/03/05 02:49:16;;;;;;;60.33;23.65;;;7.60;99.90;;;;;;5058577;28;20021;-90
2024/03/05 02:51:42;;;;;;;58.28;22.63;;;7.60;99.90;;;;;;5067360;28;20025;-90
2024/03/05 02:54:07;;;;;;;59.33;24.83;;;7.60;99.90;;;;;;5059738;28;20044;-91
2024/03/05 02:56:36;;;;;;;62.63;26.23;;;7.70;99.90;;;;;;5060520;28;20036;-89
2024/03/05 02:59:02;;;;;;;65.28;24.88;;;7.70;99.90;;;;;;5061438;28;20025;-90
2024/03/05 03:01:28;;;;;;;63.60;24.00;;;7.60;99.90;;;;;;5053201;28;20067;-91
2024/03/05 03:03:54;;;;;;;61.55;25.30;;;7.70;99.90;;;;;;5045245;28;20079;-91
2024/03/05 03:06:21;;;;;;;71.25;28.45;;;7.70;99.90;;;;;;5057869;28;20037;-90
2024/03/05 03:08:46;;;;;;;66.20;25.10;;;7.70;99.90;;;;;;5060097;28;20025;-90
2024/03/05 03:11:16;;;;;;;62.70;26.08;;;7.70;99.90;;;;;;5061313;28;20092;-90
2024/03/05 03:13:43;;;;;;;73.38;28.13;;;7.70;99.90;;;;;;5048263;28;20058;-90
2024/03/05 03:16:08;;;;;;;68.47;25.35;;;7.70;99.90;;;;;;5062436;28;20028;-90
2024/03/05 03:18:34;;;;;;;61.88;24.88;;;7.70;99.90;;;;;;5059180;28;20032;-90
2024/03/05 03:21:06;;;;;;;61.45;24.38;;;7.70;99.90;;;;;;5060551;28;20017;-90
2024/03/05 03:23:31;;;;;;;62.47;24.10;;;7.70;99.90;;;;;;5051806;28;20667;-89
2024/03/05 03:25:58;;;;;;;62.97;24.15;;;7.70;99.90;;;;;;5068565;28;20029;-90
2024/03/05 03:28:24;;;;;;;67.57;26.05;;;7.70;99.90;;;;;;5056984;28;20029;-91
2024/03/05 03:30:54;;;;;;;64.32;24.92;;;7.70;99.90;;;;;;5048175;28;20491;-91
2024/03/05 03:33:23;;;;;;;71.88;29.42;;;7.70;99.90;;;;;;5058393;28;20120;-91
2024/03/05 03:35:49;;;;;;;73.97;26.77;;;7.70;99.90;;;;;;5060003;28;20467;-90
2024/03/05 03:38:15;;;;;;;67.00;25.77;;;7.70;99.90;;;;;;5054230;28;20028;-90
2024/03/05 03:40:43;;;;;;;67.28;27.85;;;7.70;99.90;;;;;;5060409;28;20032;-90
2024/03/05 03:43:14;;;;;;;65.25;25.52;;;7.60;99.90;;;;;;5061434;28;20017;-89
2024/03/05 03:45:40;;;;;;;64.95;27.58;;;7.70;99.90;;;;;;5035899;28;20116;-90
2024/03/05 03:48:06;;;;;;;64.53;24.52;;;7.60;99.90;;;;;;5050942;28;20033;-89
2024/03/05 03:50:37;;;;;;;59.55;25.05;;;7.70;99.90;;;;;;5060077;28;20021;-91
2024/03/05 03:53:04;;;;;;;64.75;27.02;;;7.60;99.90;;;;;;5051908;28;20078;-91
2024/03/05 03:55:30;;;;;;;71.30;27.30;;;7.60;99.90;;;;;;5068399;28;20025;-90
2024/03/05 03:57:56;;;;;;;64.93;27.02;;;7.60;99.90;;;;;;5062174;28;20036;-89
2024/03/05 04:00:23;;;;;;;68.88;24.08;;;7.50;99.90;;;;;;5063107;28;20028;-91
2024/03/05 04:02:49;;;;;;;64.78;24.80;;;7.50;99.90;;;;;;5064241;28;20033;-89
2024/03/05 04:05:18;;;;;;;62.80;24.98;;;7.50;99.90;;;;;;5042947;28;20036;-91
2024/03/05 04:07:47;;;;;;;68.75;26.02;;;7.50;99.90;;;;;;5051395;28;20029;-90
2024/03/05 04:10:15;;;;;;;59.50;22.67;;;7.50;99.90;;;;;;5048411;28;20025;-90
2024/03/05 04:12:44;;;;;;;66.35;24.52;;;7.50;99.90;;;;;;5056878;28;20112;-89
2024/03/05 04:15:18;;;;;;;61.65;25.15;;;7.50;99.90;;;;;;5033689;28;20024;-91
2024/03/05 04:17:45;;;;;;;76.65;27.92;;;7.60;99.90;;;;;;5048589;28;20032;-91
2024/03/05 04:20:16;;;;;;;67.10;25.27;;;7.50;99.90;;;;;;5050665;28;20032;-91
2024/03/05 04:22:43;;;;;;;65.75;25.42;;;7.50;99.90;;;;;;5060113;28;20022;-90
2024/03/05 04:25:09;;;;;;;74.78;28.98;;;7.50;99.90;;;;;;5058256;28;20365;-90
2024/03/05 04:27:41;;;;;;;60.22;24.25;;;7.50;99.90;;;;;;5049932;28;20083;-91
2024/03/05 04:30:12;;;;;;;63.30;25.60;;;7.50;99.90;;;;;;5050449;28;20028;-91
2024/03/05 04:32:40;;;;;;;70.43;27.48;;;7.50;99.90;;;;;;5079539;28;20043;-90
2024/03/05 04:35:11;;;;;;;64.47;24.85;;;7.50;99.90;;;;;;5079327;28;20017;-90
2024/03/05 04:37:36;;;;;;;67.20;26.33;;;7.50;99.90;;;;;;5063214;28;20020;-90
2024/03/05 04:40:09;;;;;;;68.03;25.85;;;7.50;99.90;;;;;;5070559;28;20497;-90
2024/03/05 04:42:36;;;;;;;70.25;29.10;;;7.50;99.90;;;;;;5041086;28;20207;-90
2024/03/05 04:45:02;;;;;;;65.18;24.98;;;7.50;99.90;;;;;;5040554;28;20021;-91
2024/03/05 04:47:29;;;;;;;63.55;26.35;;;7.60;99.90;;;;;;5056419;28;20094;-90
2024/03/05 04:49:55;;;;;;;66.88;27.48;;;7.50;99.90;;;;;;5049624;28;20028;-91
2024/03/05 04:52:21;;;;;;;68.32;25.92;;;7.50;99.90;;;;;;5059448;28;20041;-91
2024/03/05 04:54:50;;;;;;;59.63;26.55;;;7.60;99.90;;;;;;5054496;28;20048;-90
2024/03/05 04:57:16;;;;;;;64.95;26.13;;;7.50;99.90;;;;;;5060298;28;20029;-91
2024/03/05 04:59:41;;;;;;;62.53;27.20;;;7.50;99.90;;;;;;5040461;28;20040;-90
2024/03/05 05:02:07;;;;;;;63.58;26.80;;;7.50;99.90;;;;;;5058574;28;20555;-89
2024/03/05 05:04:37;;;;;;;75.80;27.33;;;7.50;99.90;;;;;;5055020;28;20056;-91
2024/03/05 05:07:05;;;;;;;61.97;26.17;;;7.60;99.90;;;;;;5054464;28;20686;-90
2024/03/05 05:09:32;;;;;;;59.80;25.65;;;7.60;99.90;;;;;;5068132;28;20518;-90
2024/03/05 05:12:00;;;;;;;64.13;26.10;;;7.50;99.90;;;;;;5041831;28;20047;-92
2024/03/05 05:14:26;;;;;;;71.70;26.77;;;7.60;99.90;;;;;;5041810;28;20024;-89
2024/03/05 05:16:52;;;;;;;67.88;26.30;;;7.50;99.90;;;;;;5035340;28;20025;-90
2024/03/05 05:19:18;;;;;;;68.88;23.70;;;7.50;99.90;;;;;;5062903;28;20036;-90
2024/03/05 05:21:47;;;;;;;74.03;24.92;;;7.40;99.90;;;;;;5059961;28;20033;-90
2024/03/05 05:24:12;;;;;;;70.32;26.63;;;7.40;99.90;;;;;;5040694;28;20075;-90
2024/03/05 05:26:42;;;;;;;71.50;26.95;;;7.50;99.90;;;;;;5032916;28;20032;-90
2024/03/05 05:29:12;;;;;;;76.35;27.58;;;7.40;99.90;;;;;;5045578;28;20024;-88
2024/03/05 05:31:38;;;;;;;74.45;28.48;;;7.40;99.90;;;;;;5045361;28;20090;-89
2024/03/05 05:34:03;;;;;;;74.85;29.98;;;7.40;99.90;;;;;;5075524;28;20017;-90
2024/03/05 05:36:30;;;;;;;79.28;30.77;;;7.40;99.90;;;;;;5058879;28;20491;-89
2024/03/05 05:39:01;;;;;;;77.40;30.73;;;7.40;99.90;;;;;;5047615;28;20063;-89
2024/03/05 05:41:27;;;;;;;77.75;30.48;;;7.40;99.90;;;;;;5055835;28;20189;-90
2024/03/05 05:43:53;;;;;;;76.82;30.77;;;7.30;99.90;;;;;;5065088;28;20035;-89
2024/03/05 05:46:22;;;;;;;86.05;31.70;;;7.40;99.90;;;;;;5045440;28;20052;-87
2024/03/05 05:48:49;;;;;;;76.43;30.27;;;7.40;99.90;;;;;;5040712;28;20040;-89
2024/03/05 05:51:18;;;;;;;84.18;30.42;;;7.30;99.90;;;;;;5061034;28;20047;-91
2024/03/05 05:53:44;;;;;;;88.47;29.75;;;7.30;99.90;;;;;;5043288;28;20028;-88
2024/03/05 05:56:10;;;;;;;79.95;30.05;;;7.30;99.90;;;;;;5061012;28;20025;-89
2024/03/05 05:58:36;;;;;;;89.97;31.05;;;7.30;99.90;;;;;;5048689;28;20071;-88
2024/03/05 06:01:05;;;;;;;89.93;31.13;;;7.30;99.90;;;;;;5058362;28;20111;-88
2024/03/05 06:03:35;;;;;;;84.78;32.65;;;7.20;99.90;;;;;;5044259;28;20487;-89
2024/03/05 06:06:01;;;;;;;93.28;33.58;;;7.30;99.90;;;;;;5050452;28;20376;-89
2024/03/05 06:08:27;;;;;;;74.28;26.42;;;7.30;99.90;;;;;;5058963;28;20085;-89
2024/03/05 06:10:53;;;;;;;82.25;30.00;;;7.20;99.90;;;;;;5072391;28;20112;-89
2024/03/05 06:13:20;;;;;;;76.28;27.40;;;7.20;99.90;;;;;;5071537;28;20021;-88
2024/03/05 06:15:48;;;;;;;77.18;29.73;;;7.20;99.90;;;;;;5060159;28;20021;-91
2024/03/05 06:18:17;;;;;;;69.35;27.10;;;7.20;99.90;;;;;;5029627;28;20037;-90
2024/03/05 06:20:43;;;;;;;75.82;28.95;;;7.20;99.90;;;;;;5023805;28;20032;-89
2024/03/05 06:23:11;;;;;;;87.43;31.40;;;7.10;99.90;;;;;;5068024;28;20021;-88
2024/03/05 06:25:37;;;;;;;;;;;7.10;99.90;;;;;;5073245;28;20025;-89
2024/03/05 06:28:03;;;;;;;77.78;27.23;;;7.10;99.90;;;;;;5057889;28;19909;-88
2024/03/05 06:30:29;;;;;;;81.35;32.88;;;7.10;99.90;;;;;;5051166;28;20409;-89
2024/03/05 06:32:55;;;;;;;80.15;26.25;;;7.10;99.90;;;;;;5050700;28;20084;-89
2024/03/05 06:35:23;;;;;;;75.28;28.95;;;7.10;99.90;;;;;;5056872;28;20031;-90
2024/03/05 06:37:49;;;;;;;;;;;7.10;99.90;;;;;;5051967;28;20040;-89
2024/03/05 06:40:19;;;;;;;75.93;25.58;;;7.10;99.90;;;;;;5064151;28;19905;-88
2024/03/05 06:42:52;;;;;;;81.10;28.17;;;7.10;99.90;;;;;;5064145;28;20470;-89
2024/03/05 06:45:27;;;;;;;84.40;30.38;;;7.10;99.90;;;;;;5056939;28;20082;-89
2024/03/05 06:48:07;;;;;;;78.70;27.63;;;7.10;99.90;;;;;;5069430;28;20108;-91
2024/03/05 06:51:26;;;;;;;75.85;26.63;;;7.10;99.90;;;;;;5045891;28;20037;-91
2024/03/05 06:58:50;;;;;;;75.90;28.02;;;7.10;99.90;;;;;;5068602;28;20028;-89
2024/03/05 07:01:19;;;;;;;89.95;30.55;;;7.20;99.90;;;;;;5063017;28;20032;-89
2024/03/05 07:03:46;;;;;;;86.45;28.08;;;7.10;99.90;;;;;;5053831;28;20021;-90
2024/03/05 07:06:15;;;;;;;86.45;31.23;;;7.10;99.90;;;;;;5072283;28;20470;-89
2024/03/05 07:08:43;;;;;;;84.40;28.63;;;7.20;99.90;;;;;;5041623;28;20047;-91
2024/03/05 07:11:12;;;;;;;;;;;7.20;99.90;;;;;;5051395;28;20018;-90
2024/03/05 07:13:47;;;;;;;75.32;27.55;;;7.20;99.90;;;;;;5055953;28;19904;-90
2024/03/05 07:16:16;;;;;;;76.03;26.80;;;7.20;99.90;;;;;;5062865;28;20108;-89
2024/03/05 07:18:49;;;;;;;81.35;29.17;;;7.20;99.90;;;;;;5067044;28;20469;-92
2024/03/05 07:21:21;;;;;;;74.05;26.83;;;7.20;99.90;;;;;;5062796;28;20048;-91
2024/03/05 07:23:48;;;;;;;73.50;29.08;;;7.20;99.90;;;;;;5051143;28;20064;-92
2024/03/05 07:26:14;;;;;;;84.10;28.23;;;7.20;99.90;;;;;;5068688;28;20032;-90
2024/03/05 07:28:40;;;;;;;76.45;27.23;;;7.20;99.90;;;;;;5050081;28;20056;-90
2024/03/05 07:31:06;;;;;;;74.88;26.98;;;7.20;99.90;;;;;;5060434;28;20506;-91
2024/03/05 07:33:32;;;;;;;80.28;26.38;;;7.20;99.90;;;;;;5062035;28;20027;-91
2024/03/05 07:35:58;;;;;;;71.35;25.92;;;7.20;99.90;;;;;;5057044;28;20063;-88
2024/03/05 07:38:24;;;;;;;76.53;28.05;;;7.20;99.90;;;;;;5058910;28;20025;-88
2024/03/05 07:40:49;;;;;;;69.45;25.80;;;7.20;99.90;;;;;;5057943;28;20024;-90
2024/03/05 07:43:15;;;;;;;74.40;27.50;;;7.30;99.90;;;;;;5064167;28;20029;-91
2024/03/05 07:45:42;;;;;;;75.97;26.88;;;7.30;99.90;;;;;;5046143;28;20017;-90
2024/03/05 07:48:11;;;;;;;68.55;26.25;;;7.30;99.90;;;;;;5045769;28;20028;-90
2024/03/05 07:50:37;;;;;;;75.00;26.02;;;7.30;99.90;;;;;;5045284;28;20052;-89
2024/03/05 07:53:06;;;;;;;70.47;27.20;;;7.30;99.90;;;;;;5059379;28;20382;-91
2024/03/05 07:55:38;;;;;;;70.03;27.67;;;7.30;99.90;;;;;;5064439;28;20037;-89
2024/03/05 07:58:06;;;;;;;70.07;27.02;;;7.30;99.90;;;;;;5076773;28;20040;-89
2024/03/05 08:00:32;;;;;;;71.35;25.15;;;7.30;99.90;;;;;;5054076;28;20029;-89
2024/03/05 08:02:58;;;;;;;66.45;25.02;;;7.30;99.90;;;;;;5071367;28;20364;-90
2024/03/05 08:05:24;;;;;;;65.28;24.95;;;7.30;99.90;;;;;;5077349;28;20032;-89
2024/03/05 08:07:57;;;;;;;70.78;25.38;;;7.30;99.90;;;;;;5059524;28;20525;-90
2024/03/05 08:10:24;;;;;;;70.05;25.02;;;7.30;99.90;;;;;;5055393;28;20024;-88
2024/03/05 08:12:55;;;;;;;68.18;25.05;;;7.30;99.90;;;;;;5071554;28;20028;-90
2024/03/05 08:15:22;;;;;;;67.40;26.35;;;7.30;99.90;;;;;;5063062;28;20033;-89
2024/03/05 08:17:49;;;;;;;71.10;24.70;;;7.30;99.90;;;;;;5066042;28;20021;-89
2024/03/05 08:20:16;;;;;;;67.70;25.90;;;7.40;99.90;;;;;;5037494;28;20043;-90
2024/03/05 08:22:45;;;;;;;72.53;26.88;;;7.40;99.90;;;;;;5065522;28;20098;-89
2024/03/05 08:25:13;;;;;;;68.40;26.55;;;7.30;99.90;;;;;;5076844;28;20032;-89
2024/03/05 08:27:59;;;;;;;64.30;25.55;;;7.40;99.90;;;;;;5052816;28;20038;-90
2024/03/05 08:30:29;;;;;;;66.03;26.52;;;7.30;99.90;;;;;;5069881;28;20060;-89
2024/03/05 08:32:56;;;;;;;71.20;28.70;;;7.30;99.90;;;;;;5055955;28;20021;-89
2024/03/05 08:35:22;;;;;;;65.07;26.80;;;7.30;99.90;;;;;;5062839;28;20170;-90
2024/03/05 08:37:49;;;;;;;65.57;27.05;;;7.30;99.90;;;;;;5040421;28;20026;-91
2024/03/05 08:40:17;;;;;;;68.15;26.63;;;7.30;99.90;;;;;;5055520;28;20017;-88
2024/03/05 08:42:45;;;;;;;64.78;24.40;;;7.40;99.90;;;;;;5055485;28;20025;-89
2024/03/05 08:45:18;;;;;;;66.65;25.20;;;7.30;99.90;;;;;;5062385;28;20025;-89
2024/03/05 08:47:45;;;;;;;66.13;24.65;;;7.30;99.90;;;;;;5073218;28;20025;-88
2024/03/05 08:50:11;;;;;;;63.80;25.23;;;7.40;99.90;;;;;;5058172;28;20027;-89
2024/03/05 08:52:38;;;;;;;64.35;26.70;;;7.30;99.90;;;;;;5059099;28;20501;-89
2024/03/05 08:55:05;;;;;;;60.63;24.50;;;7.40;99.90;;;;;;5069122;28;20161;-89
2024/03/05 08:57:31;;;;;;;64.30;24.67;;;7.40;99.90;;;;;;5045645;28;20108;-89
2024/03/05 09:00:03;;;;;;;54.22;22.95;;;7.50;99.90;;;;;;5077438;28;20119;-90
2024/03/05 09:02:29;;;;;;;58.58;23.80;;;7.40;99.90;;;;;;5057010;28;20113;-90
2024/03/05 09:05:03;;;;;;;58.60;23.38;;;7.50;99.90;;;;;;5065153;28;20072;-90
2024/03/05 09:07:29;;;;;;;55.53;22.60;;;7.50;99.90;;;;;;5058654;28;20064;-88
2024/03/05 09:09:55;;;;;;;50.03;21.52;;;7.50;99.90;;;;;;5049537;28;20025;-90
2024/03/05 09:12:21;;;;;;;47.13;20.73;;;7.50;99.90;;;;;;5067129;28;20024;-90
2024/03/05 09:14:47;;;;;;;52.33;23.25;;;7.40;99.90;;;;;;5045617;28;20494;-89
2024/03/05 09:17:12;;;;;;;46.78;20.88;;;7.40;99.90;;;;;;5038189;28;20025;-89
2024/03/05 09:19:38;;;;;;;44.47;18.63;;;7.50;99.90;;;;;;5056617;28;20025;-89
2024/03/05 09:22:04;;;;;;;45.08;18.75;;;7.50;99.90;;;;;;5057867;28;20039;-90
2024/03/05 09:24:35;;;;;;;38.95;17.95;;;7.50;99.90;;;;;;5038958;28;20028;-89
2024/03/05 09:27:01;;;;;;;48.03;19.58;;;7.40;99.90;;;;;;5052685;28;20025;-89
2024/03/05 09:29:28;;;;;;;47.58;19.88;;;7.50;99.90;;;;;;5063892;28;20033;-90
2024/03/05 09:31:53;;;;;;;37.00;17.63;;;7.50;99.90;;;;;;5071774;28;20028;-89
2024/03/05 09:34:20;;;;;;;40.65;19.38;;;7.50;99.90;;;;;;5059496;28;20383;-88
2024/03/05 09:36:45;;;;;;;43.10;18.90;;;7.50;99.90;;;;;;5041547;28;20024;-90
2024/03/05 09:39:11;;;;;;;44.58;20.75;;;7.60;99.90;;;;;;5058958;28;20031;-89
2024/03/05 09:41:44;;;;;;;52.83;20.15;;;7.60;99.90;;;;;;5058339;28;20025;-89
2024/03/05 09:44:11;;;;;;;37.67;16.83;;;7.60;99.90;;;;;;5064358;28;20036;-89
2024/03/05 09:46:48;;;;;;;37.05;16.17;;;7.60;99.90;;;;;;5072320;28;20028;-89
2024/03/05 09:49:20;;;;;;;37.03;17.08;;;7.60;99.90;;;;;;5049489;28;20093;-89
2024/03/05 09:51:47;;;;;;;33.22;15.82;;;7.60;99.90;;;;;;5055091;28;20033;-88
2024/03/05 09:54:13;;;;;;;28.02;13.52;;;7.60;99.90;;;;;;5064894;28;20424;-91
2024/03/05 09:56:42;;;;;;;35.08;15.43;;;7.60;99.90;;;;;;5053173;28;20068;-90
2024/03/05 09:59:16;;;;;;;32.33;14.30;;;7.60;99.90;;;;;;5056276;28;20028;-89
2024/03/05 10:01:44;;;;;;;32.72;14.18;;;7.60;99.90;;;;;;5034241;28;20107;-89
2024/03/05 10:04:12;;;;;;;32.22;14.80;;;7.70;99.90;;;;;;5048008;28;20025;-89
2024/03/05 10:06:38;;;;;;;;;;;7.70;99.90;;;;;;5054549;28;20020;-88
2024/03/05 10:09:05;;;;;;;28.77;14.55;;;7.70;99.90;;;;;;5059880;28;19932;-89
2024/03/05 10:11:31;;;;;;;27.05;12.43;;;7.80;99.90;;;;;;5049175;28;20072;-89
2024/03/05 10:14:08;;;;;;;24.80;12.00;;;7.90;99.90;;;;;;5047584;28;20396;-90
2024/03/05 10:16:43;;;;;;;26.55;11.63;;;7.90;99.90;;;;;;5037631;28;20032;-90
2024/03/05 10:19:13;;;;;;;21.95;10.32;;;7.90;99.90;;;;;;5030378;28;20025;-88
2024/03/05 10:21:39;;;;;;;21.40;11.98;;;7.90;99.90;;;;;;5042110;28;20443;-89
2024/03/05 10:24:05;;;;;;;17.10;9.45;;;7.80;99.90;;;;;;5051173;28;20053;-89
2024/03/05 10:26:32;;;;;;;19.23;8.32;;;7.90;99.90;;;;;;5054621;28;20398;-89
2024/03/05 10:28:58;;;;;;;18.08;8.95;;;8.10;99.90;;;;;;5072828;28;20431;-89
2024/03/05 10:31:28;;;;;;;18.20;8.07;;;8.10;99.90;;;;;;5060808;28;20128;-89
2024/03/05 10:33:56;;;;;;;16.02;8.27;;;8.30;99.90;;;;;;5045414;28;20018;-90
2024/03/05 10:36:32;;;;;;;15.20;8.00;;;8.40;99.90;;;;;;5068789;28;20059;-89
2024/03/05 10:38:58;;;;;;;10.05;6.70;;;8.60;99.90;;;;;;5069200;28;20029;-91
2024/03/05 10:41:28;;;;;;;11.02;6.45;;;8.80;99.90;;;;;;5056303;28;20029;-89
2024/03/05 10:43:56;;;;;;;13.25;7.00;;;8.70;99.90;;;;;;5048608;28;20092;-90
2024/03/05 10:46:27;;;;;;;10.13;5.43;;;8.80;99.90;;;;;;5065546;28;20028;-89
2024/03/05 10:49:03;;;;;;;10.02;6.50;;;8.90;99.90;;;;;;5048932;28;20024;-90
2024/03/05 10:51:32;;;;;;;50.05;21.25;;;8.70;99.90;;;;;;5037546;28;20594;-90
2024/03/05 10:53:59;;;;;;;10.13;5.32;;;8.70;99.90;;;;;;5061967;28;20113;-90
2024/03/05 10:56:26;;;;;;;11.25;4.85;;;8.70;99.90;;;;;;5057346;28;20027;-90
2024/03/05 11:01:37;;;;;;;8.32;5.15;;;8.70;99.90;;;;;;5055214;28;20040;-90
2024/03/05 11:04:12;;;;;;;9.07;4.85;;;8.90;99.90;;;;;;5055232;28;20063;-89
2024/03/05 11:06:40;;;;;;;7.35;5.38;;;8.90;99.90;;;;;;5063641;28;20021;-89
2024/03/05 11:09:09;;;;;;;9.32;5.10;;;8.90;99.90;;;;;;5072035;28;20094;-91
2024/03/05 11:11:39;;;;;;;10.82;4.07;;;8.90;99.90;;;;;;5070262;28;20032;-88
2024/03/05 11:14:06;;;;;;;8.75;5.03;;;9.00;99.60;;;;;;5052477;28;20024;-90
2024/03/05 11:16:35;;;;;;;7.13;5.18;;;8.80;97.20;;;;;;5058638;28;20029;-89
2024/03/05 11:19:07;;;;;;;6.88;4.75;;;8.90;97.20;;;;;;5057190;28;20037;-88
2024/03/05 11:21:36;;;;;;;6.22;4.25;;;9.00;99.80;;;;;;5054788;28;20029;-90
2024/03/05 11:24:03;;;;;;;9.43;5.10;;;9.10;99.20;;;;;;5067047;28;20031;-89
2024/03/05 11:26:29;;;;;;;7.35;5.85;;;8.90;99.90;;;;;;5053557;28;20287;-88
2024/03/05 11:29:24;;;;;;;6.95;3.28;;;9.00;99.20;;;;;;5046094;28;20029;-90
2024/03/05 11:31:56;;;;;;;4.82;3.83;;;9.10;97.90;;;;;;5031436;28;20041;-88
2024/03/05 11:34:22;;;;;;;6.40;3.85;;;9.20;97.00;;;;;;5035300;28;20025;-89
2024/03/05 11:37:08;;;;;;;5.32;3.58;;;9.60;97.70;;;;;;5035268;28;20029;-87
2024/03/05 11:39:41;;;;;;;4.72;3.75;;;9.80;92.20;;;;;;5065374;28;20540;-89
2024/03/05 11:42:16;;;;;;;8.18;3.67;;;10.10;91.60;;;;;;5057196;28;20040;-90
2024/03/05 11:44:45;;;;;;;4.07;2.70;;;10.20;92.50;;;;;;5057311;28;20108;-89
2024/03/05 11:47:17;;;;;;;8.90;4.47;;;10.30;91.80;;;;;;5049126;28;20031;-88
2024/03/05 11:49:43;;;;;;;5.05;3.85;;;9.90;88.60;;;;;;5068911;28;20426;-89
2024/03/05 11:52:10;;;;;;;5.93;3.42;;;10.00;94.50;;;;;;5049683;28;20086;-89
2024/03/05 11:54:35;;;;;;;6.78;3.25;;;9.70;88.20;;;;;;5066012;28;20040;-89
2024/03/05 11:57:03;;;;;;;5.45;2.85;;;9.60;92.90;;;;;;5068693;28;20029;-90
2024/03/05 11:59:41;;;;;;;8.68;3.25;;;9.30;91.30;;;;;;5063539;28;20029;-90
2024/03/05 12:02:15;;;;;;;7.57;3.25;;;9.30;89.70;;;;;;5053832;28;20552;-88
2024/03/05 12:04:47;;;;;;;5.78;3.67;;;9.20;91.00;;;;;;5061292;28;20028;-88
2024/03/05 12:07:13;;;;;;;7.10;3.55;;;9.00;92.40;;;;;;5053816;28;20029;-87
2024/03/05 12:09:39;;;;;;;8.65;5.07;;;8.90;94.40;;;;;;5059864;28;20021;-89
2024/03/05 12:12:11;;;;;;;5.55;4.05;;;8.90;96.30;;;;;;5049724;28;20025;-89
2024/03/05 12:14:54;;;;;;;5.38;3.85;;;9.10;95.90;;;;;;5074782;28;20020;-88
2024/03/05 12:17:21;;;;;;;8.30;3.72;;;9.20;94.80;;;;;;5059156;28;20051;-88
2024/03/05 12:20:07;;;;;;;5.28;3.70;;;9.20;93.10;;;;;;5035861;28;20029;-88
2024/03/05 12:22:36;;;;;;;13.05;6.25;;;9.30;95.90;;;;;;5054290;28;20093;-87
2024/03/05 12:25:02;;;;;;;9.82;5.03;;;9.30;95.00;;;;;;5051270;28;20078;-88
2024/03/05 12:27:28;;;;;;;7.47;5.32;;;9.20;94.30;;;;;;5048373;28;20033;-87
2024/03/05 12:30:01;;;;;;;6.35;5.47;;;9.00;93.90;;;;;;5042832;28;20447;-88
2024/03/05 12:32:27;;;;;;;15.77;9.55;;;8.90;96.40;;;;;;5054452;28;20108;-88
2024/03/05 12:34:52;;;;;;;9.18;5.53;;;8.90;99.10;;;;;;5055175;28;20119;-88
2024/03/05 12:37:20;;;;;;;12.40;6.32;;;8.80;98.50;;;;;;5056806;28;20048;-88
2024/03/05 12:39:45;;;;;;;10.60;6.13;;;8.70;99.50;;;;;;5051033;28;20078;-88
2024/03/05 12:42:13;;;;;;;8.90;5.75;;;8.60;99.90;;;;;;5051664;28;20075;-88
2024/03/05 12:44:40;;;;;;;11.52;5.82;;;8.40;99.90;;;;;;5048648;28;20027;-88
2024/03/05 12:47:15;;;;;;;10.80;5.70;;;8.40;99.90;;;;;;5060383;28;20025;-89
2024/03/05 12:49:45;;;;;;;9.77;6.22;;;8.40;99.90;;;;;;5062870;28;20020;-90
2024/03/05 12:52:17;;;;;;;56.70;22.75;;;8.40;99.90;;;;;;5045662;28;20017;-87